sensor_id;sensor_type;location;lat;lon;timestamp;P1;durP1;ratioP1;P2;durP2;ratioP2
13785;SDS011;47474;48.824;9.384;2023-06-19T00:00:12;6.07;;;5.57;;
13785;SDS011;47474;48.824;9.384;2023-06-19T00:02:40;7.38;;;6.10;;
13785;SDS011;47474;48.824;9.384;2023-06-19T00:05:08;5.90;;;5.40;;
13785;SDS011;47474;48.824;9.384;2023-06-19T00:07:35;5.95;;;5.35;;
13785;SDS011;47474;48.824;9.384;2023-06-19T00:10:02;5.80;;;5.30;;
13785;SDS011;47474;48.824;9.384;2023-06-19T00:12:29;6.53;;;6.03;;
13785;SDS011;47474;48.824;9.384;2023-06-19T00:14:58;5.78;;;5.28;;
13785;SDS011;47474;48.824;9.384;2023-06-19T00:17:29;6.72;;;5.65;;
13785;SDS011;47474;48.824;9.384;2023-06-19T00:19:58;6.07;;;5.53;;
13785;SDS011;47474;48.824;9.384;2023-06-19T00:22:28;6.35;;;5.75;;
13785;SDS011;47474;48.824;9.384;2023-06-19T00:24:57;6.28;;;5.32;;
13785;SDS011;47474;48.824;9.384;2023-06-19T00:27:24;5.90;;;5.40;;
13785;SDS011;47474;48.824;9.384;2023-06-19T00:29:51;5.88;;;5.32;;
13785;SDS011;47474;48.824;9.384;2023-06-19T00:32:17;6.40;;;5.63;;
13785;SDS011;47474;48.824;9.384;2023-06-19T00:34:49;6.32;;;5.60;;
13785;SDS011;47474;48.824;9.384;2023-06-19T00:37:15;5.97;;;5.47;;
13785;SDS011;47474;48.824;9.384;2023-06-19T00:39:42;6.63;;;5.28;;
13785;SDS011;47474;48.824;9.384;2023-06-19T00:42:08;5.85;;;5.40;;
13785;SDS011;47474;48.824;9.384;2023-06-19T00:44:35;5.70;;;5.20;;
13785;SDS011;47474;48.824;9.384;2023-06-19T00:47:02;6.43;;;5.53;;
13785;SDS011;47474;48.824;9.384;2023-06-19T00:49:31;5.90;;;5.38;;
13785;SDS011;47474;48.824;9.384;2023-06-19T00:52:03;5.80;;;5.30;;
13785;SDS011;47474;48.824;9.384;2023-06-19T00:54:29;5.65;;;5.15;;
13785;SDS011;47474;48.824;9.384;2023-06-19T00:56:56;6.20;;;5.47;;
13785;SDS011;47474;48.824;9.384;2023-06-19T00:59:23;6.97;;;6.07;;
13785;SDS011;47474;48.824;9.384;2023-06-19T01:01:49;6.43;;;5.78;;
13785;SDS011;47474;48.824;9.384;2023-06-19T01:04:16;6.35;;;5.75;;
13785;SDS011;47474;48.824;9.384;2023-06-19T01:06:44;7.75;;;5.50;;
13785;SDS011;47474;48.824;9.384;2023-06-19T01:09:16;6.78;;;5.75;;
13785;SDS011;47474;48.824;9.384;2023-06-19T01:11:44;5.65;;;5.15;;
13785;SDS011;47474;48.824;9.384;2023-06-19T01:14:13;6.05;;;5.55;;
13785;SDS011;47474;48.824;9.384;2023-06-19T01:16:41;7.25;;;5.65;;
13785;SDS011;47474;48.824;9.384;2023-06-19T01:19:10;6.07;;;5.47;;
13785;SDS011;47474;48.824;9.384;2023-06-19T01:21:36;6.05;;;5.53;;
13785;SDS011;47474;48.824;9.384;2023-06-19T01:24:05;6.97;;;5.38;;
13785;SDS011;47474;48.824;9.384;2023-06-19T01:26:32;5.95;;;5.45;;
13785;SDS011;47474;48.824;9.384;2023-06-19T01:28:58;6.10;;;5.60;;
13785;SDS011;47474;48.824;9.384;2023-06-19T01:31:27;6.15;;;5.65;;
13785;SDS011;47474;48.824;9.384;2023-06-19T01:33:57;6.80;;;6.15;;
13785;SDS011;47474;48.824;9.384;2023-06-19T01:36:25;6.65;;;6.05;;
13785;SDS011;47474;48.824;9.384;2023-06-19T01:38:52;6.07;;;5.40;;
13785;SDS011;47474;48.824;9.384;2023-06-19T01:41:22;5.90;;;5.07;;
13785;SDS011;47474;48.824;9.384;2023-06-19T01:43:49;6.45;;;5.85;;
13785;SDS011;47474;48.824;9.384;2023-06-19T01:46:15;6.45;;;5.85;;
13785;SDS011;47474;48.824;9.384;2023-06-19T01:48:42;6.05;;;5.55;;
13785;SDS011;47474;48.824;9.384;2023-06-19T01:51:09;7.57;;;5.95;;
13785;SDS011;47474;48.824;9.384;2023-06-19T01:53:36;6.25;;;5.50;;
13785;SDS011;47474;48.824;9.384;2023-06-19T01:56:03;6.15;;;5.55;;
13785;SDS011;47474;48.824;9.384;2023-06-19T01:58:31;6.40;;;5.80;;
13785;SDS011;47474;48.824;9.384;2023-06-19T02:00:57;5.20;;;4.50;;
13785;SDS011;47474;48.824;9.384;2023-06-19T02:03:24;5.95;;;5.03;;
13785;SDS011;47474;48.824;9.384;2023-06-19T02:05:51;5.43;;;4.88;;
13785;SDS011;47474;48.824;9.384;2023-06-19T02:08:18;5.20;;;4.80;;
13785;SDS011;47474;48.824;9.384;2023-06-19T02:10:44;5.50;;;4.60;;
13785;SDS011;47474;48.824;9.384;2023-06-19T02:13:11;6.45;;;4.68;;
13785;SDS011;47474;48.824;9.384;2023-06-19T02:15:39;5.97;;;5.20;;
13785;SDS011;47474;48.824;9.384;2023-06-19T02:18:06;5.35;;;4.80;;
13785;SDS011;47474;48.824;9.384;2023-06-19T02:20:33;4.68;;;4.28;;
13785;SDS011;47474;48.824;9.384;2023-06-19T02:22:59;6.00;;;4.53;;
13785;SDS011;47474;48.824;9.384;2023-06-19T02:25:26;4.38;;;4.05;;
13785;SDS011;47474;48.824;9.384;2023-06-19T02:27:52;4.88;;;4.38;;
13785;SDS011;47474;48.824;9.384;2023-06-19T02:30:19;4.32;;;4.03;;
13785;SDS011;47474;48.824;9.384;2023-06-19T02:32:47;4.65;;;4.25;;
13785;SDS011;47474;48.824;9.384;2023-06-19T02:35:14;4.35;;;4.05;;
13785;SDS011;47474;48.824;9.384;2023-06-19T02:37:40;4.95;;;4.10;;
13785;SDS011;47474;48.824;9.384;2023-06-19T02:40:07;4.82;;;4.13;;
13785;SDS011;47474;48.824;9.384;2023-06-19T02:42:35;4.68;;;4.32;;
13785;SDS011;47474;48.824;9.384;2023-06-19T02:45:02;5.22;;;4.78;;
13785;SDS011;47474;48.824;9.384;2023-06-19T02:47:29;6.35;;;4.25;;
13785;SDS011;47474;48.824;9.384;2023-06-19T02:49:57;4.10;;;3.80;;
13785;SDS011;47474;48.824;9.384;2023-06-19T02:52:24;5.15;;;4.40;;
13785;SDS011;47474;48.824;9.384;2023-06-19T02:54:51;5.18;;;4.70;;
13785;SDS011;47474;48.824;9.384;2023-06-19T02:57:17;4.72;;;4.32;;
13785;SDS011;47474;48.824;9.384;2023-06-19T02:59:44;4.38;;;4.03;;
13785;SDS011;47474;48.824;9.384;2023-06-19T03:02:12;5.53;;;4.50;;
13785;SDS011;47474;48.824;9.384;2023-06-19T03:04:39;4.82;;;4.43;;
13785;SDS011;47474;48.824;9.384;2023-06-19T03:07:07;4.43;;;3.95;;
13785;SDS011;47474;48.824;9.384;2023-06-19T03:09:34;4.90;;;4.50;;
13785;SDS011;47474;48.824;9.384;2023-06-19T03:12:00;4.85;;;4.45;;
13785;SDS011;47474;48.824;9.384;2023-06-19T03:14:27;4.57;;;4.20;;
13785;SDS011;47474;48.824;9.384;2023-06-19T03:16:53;5.30;;;4.80;;
13785;SDS011;47474;48.824;9.384;2023-06-19T03:19:20;4.47;;;4.15;;
13785;SDS011;47474;48.824;9.384;2023-06-19T03:21:46;4.78;;;4.38;;
13785;SDS011;47474;48.824;9.384;2023-06-19T03:24:14;4.65;;;4.25;;
13785;SDS011;47474;48.824;9.384;2023-06-19T03:26:41;4.40;;;3.75;;
13785;SDS011;47474;48.824;9.384;2023-06-19T03:29:10;5.32;;;4.82;;
13785;SDS011;47474;48.824;9.384;2023-06-19T03:31:37;4.80;;;4.40;;
13785;SDS011;47474;48.824;9.384;2023-06-19T03:34:04;4.88;;;4.47;;
13785;SDS011;47474;48.824;9.384;2023-06-19T03:36:31;5.35;;;4.85;;
13785;SDS011;47474;48.824;9.384;2023-06-19T03:38:57;6.03;;;4.57;;
13785;SDS011;47474;48.824;9.384;2023-06-19T03:41:25;6.45;;;5.20;;
13785;SDS011;47474;48.824;9.384;2023-06-19T03:43:52;6.93;;;4.53;;
13785;SDS011;47474;48.824;9.384;2023-06-19T03:46:18;5.00;;;4.60;;
13785;SDS011;47474;48.824;9.384;2023-06-19T03:48:45;5.00;;;4.32;;
13785;SDS011;47474;48.824;9.384;2023-06-19T03:51:12;4.65;;;4.25;;
13785;SDS011;47474;48.824;9.384;2023-06-19T03:53:38;4.85;;;4.45;;
13785;SDS011;47474;48.824;9.384;2023-06-19T03:56:05;4.28;;;3.88;;
13785;SDS011;47474;48.824;9.384;2023-06-19T03:58:33;5.47;;;4.40;;
13785;SDS011;47474;48.824;9.384;2023-06-19T04:01:00;4.30;;;3.90;;
13785;SDS011;47474;48.824;9.384;2023-06-19T04:03:27;4.32;;;3.95;;
13785;SDS011;47474;48.824;9.384;2023-06-19T04:05:53;4.15;;;3.58;;
13785;SDS011;47474;48.824;9.384;2023-06-19T04:08:20;4.07;;;3.78;;
13785;SDS011;47474;48.824;9.384;2023-06-19T04:10:47;3.95;;;3.63;;
13785;SDS011;47474;48.824;9.384;2023-06-19T04:13:13;3.88;;;3.58;;
13785;SDS011;47474;48.824;9.384;2023-06-19T04:15:42;3.50;;;3.20;;
13785;SDS011;47474;48.824;9.384;2023-06-19T04:18:10;4.13;;;3.22;;
13785;SDS011;47474;48.824;9.384;2023-06-19T04:20:36;3.65;;;3.33;;
13785;SDS011;47474;48.824;9.384;2023-06-19T04:23:03;3.80;;;3.50;;
13785;SDS011;47474;48.824;9.384;2023-06-19T04:25:30;3.92;;;3.40;;
13785;SDS011;47474;48.824;9.384;2023-06-19T04:27:56;5.18;;;3.65;;
13785;SDS011;47474;48.824;9.384;2023-06-19T04:30:23;3.63;;;3.33;;
13785;SDS011;47474;48.824;9.384;2023-06-19T04:32:51;3.83;;;3.30;;
13785;SDS011;47474;48.824;9.384;2023-06-19T04:35:18;3.63;;;3.33;;
13785;SDS011;47474;48.824;9.384;2023-06-19T04:37:48;4.10;;;3.75;;
13785;SDS011;47474;48.824;9.384;2023-06-19T04:40:15;4.00;;;3.70;;
13785;SDS011;47474;48.824;9.384;2023-06-19T04:42:42;4.68;;;3.45;;
13785;SDS011;47474;48.824;9.384;2023-06-19T04:45:08;3.60;;;3.20;;
13785;SDS011;47474;48.824;9.384;2023-06-19T04:47:36;3.47;;;3.17;;
13785;SDS011;47474;48.824;9.384;2023-06-19T04:50:05;3.88;;;3.58;;
13785;SDS011;47474;48.824;9.384;2023-06-19T04:52:35;3.63;;;3.25;;
13785;SDS011;47474;48.824;9.384;2023-06-19T04:55:03;3.70;;;3.40;;
13785;SDS011;47474;48.824;9.384;2023-06-19T04:57:31;3.35;;;3.05;;
13785;SDS011;47474;48.824;9.384;2023-06-19T04:59:57;4.38;;;3.75;;
13785;SDS011;47474;48.824;9.384;2023-06-19T05:02:27;3.20;;;3.00;;
13785;SDS011;47474;48.824;9.384;2023-06-19T05:04:53;5.40;;;4.03;;
13785;SDS011;47474;48.824;9.384;2023-06-19T05:07:21;4.20;;;3.80;;
13785;SDS011;47474;48.824;9.384;2023-06-19T05:09:48;3.70;;;3.40;;
13785;SDS011;47474;48.824;9.384;2023-06-19T05:12:14;3.65;;;3.35;;
13785;SDS011;47474;48.824;9.384;2023-06-19T05:14:41;3.67;;;3.38;;
13785;SDS011;47474;48.824;9.384;2023-06-19T05:17:08;3.47;;;3.17;;
13785;SDS011;47474;48.824;9.384;2023-06-19T05:19:35;3.30;;;3.03;;
13785;SDS011;47474;48.824;9.384;2023-06-19T05:22:02;3.72;;;3.38;;
13785;SDS011;47474;48.824;9.384;2023-06-19T05:24:30;3.53;;;3.20;;
13785;SDS011;47474;48.824;9.384;2023-06-19T05:26:56;4.85;;;3.97;;
13785;SDS011;47474;48.824;9.384;2023-06-19T05:29:23;3.80;;;3.50;;
13785;SDS011;47474;48.824;9.384;2023-06-19T05:31:50;4.03;;;3.67;;
13785;SDS011;47474;48.824;9.384;2023-06-19T05:34:16;4.07;;;3.78;;
13785;SDS011;47474;48.824;9.384;2023-06-19T05:36:43;4.38;;;3.97;;
13785;SDS011;47474;48.824;9.384;2023-06-19T05:39:12;4.13;;;3.72;;
13785;SDS011;47474;48.824;9.384;2023-06-19T05:41:43;4.03;;;3.72;;
13785;SDS011;47474;48.824;9.384;2023-06-19T05:44:10;4.07;;;3.65;;
13785;SDS011;47474;48.824;9.384;2023-06-19T05:46:40;3.88;;;3.40;;
13785;SDS011;47474;48.824;9.384;2023-06-19T05:49:06;4.10;;;3.80;;
13785;SDS011;47474;48.824;9.384;2023-06-19T05:51:33;4.05;;;3.75;;
13785;SDS011;47474;48.824;9.384;2023-06-19T05:54:00;4.07;;;3.70;;
13785;SDS011;47474;48.824;9.384;2023-06-19T05:56:28;4.15;;;3.83;;
13785;SDS011;47474;48.824;9.384;2023-06-19T05:58:56;4.03;;;3.72;;
13785;SDS011;47474;48.824;9.384;2023-06-19T06:01:23;3.55;;;3.30;;
13785;SDS011;47474;48.824;9.384;2023-06-19T06:03:49;4.13;;;3.83;;
13785;SDS011;47474;48.824;9.384;2023-06-19T06:06:16;3.95;;;3.63;;
13785;SDS011;47474;48.824;9.384;2023-06-19T06:08:42;3.80;;;3.50;;
13785;SDS011;47474;48.824;9.384;2023-06-19T06:11:09;4.07;;;3.78;;
13785;SDS011;47474;48.824;9.384;2023-06-19T06:13:36;4.20;;;3.38;;
13785;SDS011;47474;48.824;9.384;2023-06-19T06:16:04;4.22;;;3.92;;
13785;SDS011;47474;48.824;9.384;2023-06-19T06:18:30;3.60;;;3.30;;
13785;SDS011;47474;48.824;9.384;2023-06-19T06:20:57;3.75;;;3.45;;
13785;SDS011;47474;48.824;9.384;2023-06-19T06:23:25;3.88;;;3.45;;
13785;SDS011;47474;48.824;9.384;2023-06-19T06:25:52;4.53;;;3.42;;
13785;SDS011;47474;48.824;9.384;2023-06-19T06:28:26;3.67;;;3.38;;
13785;SDS011;47474;48.824;9.384;2023-06-19T06:30:53;4.55;;;3.83;;
13785;SDS011;47474;48.824;9.384;2023-06-19T06:33:24;5.07;;;3.40;;
13785;SDS011;47474;48.824;9.384;2023-06-19T06:35:51;3.67;;;3.38;;
13785;SDS011;47474;48.824;9.384;2023-06-19T06:38:20;3.50;;;3.20;;
13785;SDS011;47474;48.824;9.384;2023-06-19T06:40:47;3.58;;;3.28;;
13785;SDS011;47474;48.824;9.384;2023-06-19T06:43:13;3.70;;;3.40;;
13785;SDS011;47474;48.824;9.384;2023-06-19T06:45:40;3.05;;;2.78;;
13785;SDS011;47474;48.824;9.384;2023-06-19T06:48:07;3.47;;;3.17;;
13785;SDS011;47474;48.824;9.384;2023-06-19T06:50:36;4.75;;;3.30;;
13785;SDS011;47474;48.824;9.384;2023-06-19T06:53:02;3.20;;;3.00;;
13785;SDS011;47474;48.824;9.384;2023-06-19T06:55:29;3.45;;;3.15;;
13785;SDS011;47474;48.824;9.384;2023-06-19T06:57:55;3.10;;;2.90;;
13785;SDS011;47474;48.824;9.384;2023-06-19T07:00:22;4.28;;;3.00;;
13785;SDS011;47474;48.824;9.384;2023-06-19T07:02:49;3.70;;;3.25;;
13785;SDS011;47474;48.824;9.384;2023-06-19T07:05:16;3.55;;;3.25;;
13785;SDS011;47474;48.824;9.384;2023-06-19T07:07:44;3.65;;;3.15;;
13785;SDS011;47474;48.824;9.384;2023-06-19T07:10:11;3.35;;;3.05;;
13785;SDS011;47474;48.824;9.384;2023-06-19T07:12:44;3.22;;;3.00;;
13785;SDS011;47474;48.824;9.384;2023-06-19T07:15:11;3.30;;;3.00;;
13785;SDS011;47474;48.824;9.384;2023-06-19T07:17:38;3.03;;;2.83;;
13785;SDS011;47474;48.824;9.384;2023-06-19T07:20:05;3.63;;;2.95;;
13785;SDS011;47474;48.824;9.384;2023-06-19T07:22:33;3.60;;;3.30;;
13785;SDS011;47474;48.824;9.384;2023-06-19T07:25:01;2.70;;;2.50;;
13785;SDS011;47474;48.824;9.384;2023-06-19T07:27:28;3.88;;;3.15;;
13785;SDS011;47474;48.824;9.384;2023-06-19T07:29:55;4.18;;;3.40;;
13785;SDS011;47474;48.824;9.384;2023-06-19T07:32:22;3.22;;;2.90;;
13785;SDS011;47474;48.824;9.384;2023-06-19T07:34:48;2.92;;;2.70;;
13785;SDS011;47474;48.824;9.384;2023-06-19T07:37:15;3.33;;;2.97;;
13785;SDS011;47474;48.824;9.384;2023-06-19T07:39:43;3.40;;;2.88;;
13785;SDS011;47474;48.824;9.384;2023-06-19T07:42:12;2.92;;;2.70;;
13785;SDS011;47474;48.824;9.384;2023-06-19T07:44:38;3.00;;;2.70;;
13785;SDS011;47474;48.824;9.384;2023-06-19T07:47:05;3.58;;;2.85;;
13785;SDS011;47474;48.824;9.384;2023-06-19T07:49:34;2.88;;;2.63;;
13785;SDS011;47474;48.824;9.384;2023-06-19T07:52:01;3.40;;;3.10;;
13785;SDS011;47474;48.824;9.384;2023-06-19T07:54:30;3.38;;;2.83;;
13785;SDS011;47474;48.824;9.384;2023-06-19T07:57:03;3.30;;;2.90;;
13785;SDS011;47474;48.824;9.384;2023-06-19T07:59:31;2.22;;;2.10;;
13785;SDS011;47474;48.824;9.384;2023-06-19T08:01:57;3.40;;;2.42;;
13785;SDS011;47474;48.824;9.384;2023-06-19T08:04:24;4.80;;;2.20;;
13785;SDS011;47474;48.824;9.384;2023-06-19T08:06:53;2.85;;;1.92;;
13785;SDS011;47474;48.824;9.384;2023-06-19T08:09:20;2.20;;;2.00;;
13785;SDS011;47474;48.824;9.384;2023-06-19T08:11:47;2.35;;;2.15;;
13785;SDS011;47474;48.824;9.384;2023-06-19T08:14:13;2.20;;;2.05;;
13785;SDS011;47474;48.824;9.384;2023-06-19T08:16:41;3.00;;;2.30;;
13785;SDS011;47474;48.824;9.384;2023-06-19T08:19:08;2.30;;;2.10;;
13785;SDS011;47474;48.824;9.384;2023-06-19T08:21:35;2.22;;;2.08;;
13785;SDS011;47474;48.824;9.384;2023-06-19T08:24:01;3.08;;;2.17;;
13785;SDS011;47474;48.824;9.384;2023-06-19T08:26:28;2.20;;;2.00;;
13785;SDS011;47474;48.824;9.384;2023-06-19T08:28:56;2.22;;;2.03;;
13785;SDS011;47474;48.824;9.384;2023-06-19T08:31:26;2.47;;;2.28;;
13785;SDS011;47474;48.824;9.384;2023-06-19T08:33:57;3.03;;;2.20;;
13785;SDS011;47474;48.824;9.384;2023-06-19T08:36:23;2.42;;;2.22;;
13785;SDS011;47474;48.824;9.384;2023-06-19T08:38:52;2.47;;;2.30;;
13785;SDS011;47474;48.824;9.384;2023-06-19T08:41:18;2.42;;;2.00;;
13785;SDS011;47474;48.824;9.384;2023-06-19T08:43:45;2.60;;;1.95;;
13785;SDS011;47474;48.824;9.384;2023-06-19T08:46:14;2.03;;;1.92;;
13785;SDS011;47474;48.824;9.384;2023-06-19T08:48:42;3.28;;;2.20;;
13785;SDS011;47474;48.824;9.384;2023-06-19T08:51:11;2.38;;;2.17;;
13785;SDS011;47474;48.824;9.384;2023-06-19T08:53:44;2.35;;;2.00;;
13785;SDS011;47474;48.824;9.384;2023-06-19T08:56:11;1.90;;;1.80;;
13785;SDS011;47474;48.824;9.384;2023-06-19T08:58:38;2.88;;;2.10;;
13785;SDS011;47474;48.824;9.384;2023-06-19T09:01:04;2.38;;;2.20;;
13785;SDS011;47474;48.824;9.384;2023-06-19T09:03:31;2.38;;;2.17;;
13785;SDS011;47474;48.824;9.384;2023-06-19T09:05:59;2.25;;;2.05;;
13785;SDS011;47474;48.824;9.384;2023-06-19T09:08:30;2.40;;;2.20;;
13785;SDS011;47474;48.824;9.384;2023-06-19T09:10:57;2.80;;;2.20;;
13785;SDS011;47474;48.824;9.384;2023-06-19T09:13:24;2.78;;;2.40;;
13785;SDS011;47474;48.824;9.384;2023-06-19T09:15:57;2.60;;;2.40;;
13785;SDS011;47474;48.824;9.384;2023-06-19T09:18:24;2.60;;;2.40;;
13785;SDS011;47474;48.824;9.384;2023-06-19T09:20:52;2.10;;;1.90;;
13785;SDS011;47474;48.824;9.384;2023-06-19T09:23:19;2.50;;;2.30;;
13785;SDS011;47474;48.824;9.384;2023-06-19T09:25:47;2.80;;;2.60;;
13785;SDS011;47474;48.824;9.384;2023-06-19T09:28:18;2.47;;;2.28;;
13785;SDS011;47474;48.824;9.384;2023-06-19T09:30:53;2.50;;;2.30;;
13785;SDS011;47474;48.824;9.384;2023-06-19T09:33:21;2.55;;;2.35;;
13785;SDS011;47474;48.824;9.384;2023-06-19T09:35:48;4.03;;;2.70;;
13785;SDS011;47474;48.824;9.384;2023-06-19T09:38:16;4.57;;;2.50;;
13785;SDS011;47474;48.824;9.384;2023-06-19T09:40:43;3.00;;;2.65;;
13785;SDS011;47474;48.824;9.384;2023-06-19T09:43:12;2.83;;;2.63;;
13785;SDS011;47474;48.824;9.384;2023-06-19T09:45:39;2.72;;;2.53;;
13785;SDS011;47474;48.824;9.384;2023-06-19T09:48:06;2.30;;;2.20;;
13785;SDS011;47474;48.824;9.384;2023-06-19T09:50:36;3.38;;;2.67;;
13785;SDS011;47474;48.824;9.384;2023-06-19T09:53:03;2.60;;;2.40;;
13785;SDS011;47474;48.824;9.384;2023-06-19T09:55:30;2.85;;;2.65;;
13785;SDS011;47474;48.824;9.384;2023-06-19T09:57:58;3.00;;;2.80;;
13785;SDS011;47474;48.824;9.384;2023-06-19T10:00:27;2.72;;;2.53;;
13785;SDS011;47474;48.824;9.384;2023-06-19T10:02:56;3.08;;;2.83;;
13785;SDS011;47474;48.824;9.384;2023-06-19T10:05:28;2.80;;;2.60;;
13785;SDS011;47474;48.824;9.384;2023-06-19T10:07:55;2.63;;;2.42;;
13785;SDS011;47474;48.824;9.384;2023-06-19T10:10:25;3.40;;;2.70;;
13785;SDS011;47474;48.824;9.384;2023-06-19T10:12:53;3.03;;;2.83;;
13785;SDS011;47474;48.824;9.384;2023-06-19T10:15:21;3.25;;;2.72;;
13785;SDS011;47474;48.824;9.384;2023-06-19T10:17:51;3.22;;;2.92;;
13785;SDS011;47474;48.824;9.384;2023-06-19T10:20:22;2.97;;;2.70;;
13785;SDS011;47474;48.824;9.384;2023-06-19T10:22:50;3.05;;;2.72;;
13785;SDS011;47474;48.824;9.384;2023-06-19T10:25:21;2.83;;;2.63;;
13785;SDS011;47474;48.824;9.384;2023-06-19T10:27:48;2.60;;;2.40;;
13785;SDS011;47474;48.824;9.384;2023-06-19T10:30:17;2.72;;;2.50;;
13785;SDS011;47474;48.824;9.384;2023-06-19T10:32:44;2.50;;;2.33;;
13785;SDS011;47474;48.824;9.384;2023-06-19T10:35:12;2.83;;;2.63;;
13785;SDS011;47474;48.824;9.384;2023-06-19T10:37:39;2.70;;;2.50;;
13785;SDS011;47474;48.824;9.384;2023-06-19T10:40:06;3.80;;;2.58;;
13785;SDS011;47474;48.824;9.384;2023-06-19T10:42:35;2.83;;;2.60;;
13785;SDS011;47474;48.824;9.384;2023-06-19T10:45:02;2.97;;;2.78;;
13785;SDS011;47474;48.824;9.384;2023-06-19T10:47:31;3.03;;;2.83;;
13785;SDS011;47474;48.824;9.384;2023-06-19T10:49:58;3.15;;;2.70;;
13785;SDS011;47474;48.824;9.384;2023-06-19T10:52:27;2.75;;;2.55;;
13785;SDS011;47474;48.824;9.384;2023-06-19T10:54:54;4.38;;;2.80;;
13785;SDS011;47474;48.824;9.384;2023-06-19T10:57:26;2.72;;;2.45;;
13785;SDS011;47474;48.824;9.384;2023-06-19T10:59:53;2.75;;;2.55;;
13785;SDS011;47474;48.824;9.384;2023-06-19T11:02:20;3.10;;;2.60;;
13785;SDS011;47474;48.824;9.384;2023-06-19T11:04:46;3.30;;;2.70;;
13785;SDS011;47474;48.824;9.384;2023-06-19T11:07:13;3.90;;;3.50;;
13785;SDS011;47474;48.824;9.384;2023-06-19T11:09:41;4.38;;;2.80;;
13785;SDS011;47474;48.824;9.384;2023-06-19T11:12:08;3.42;;;3.13;;
13785;SDS011;47474;48.824;9.384;2023-06-19T11:14:35;2.95;;;2.72;;
13785;SDS011;47474;48.824;9.384;2023-06-19T11:17:05;3.30;;;3.00;;
13785;SDS011;47474;48.824;9.384;2023-06-19T11:19:32;2.88;;;2.67;;
13785;SDS011;47474;48.824;9.384;2023-06-19T11:21:59;3.28;;;3.03;;
13785;SDS011;47474;48.824;9.384;2023-06-19T11:24:27;3.97;;;3.20;;
13785;SDS011;47474;48.824;9.384;2023-06-19T11:26:56;3.30;;;3.05;;
13785;SDS011;47474;48.824;9.384;2023-06-19T11:29:24;3.10;;;2.90;;
13785;SDS011;47474;48.824;9.384;2023-06-19T11:31:54;3.15;;;2.85;;
13785;SDS011;47474;48.824;9.384;2023-06-19T11:34:31;2.80;;;2.60;;
13785;SDS011;47474;48.824;9.384;2023-06-19T11:36:59;3.13;;;2.90;;
13785;SDS011;47474;48.824;9.384;2023-06-19T11:39:25;3.00;;;2.80;;
13785;SDS011;47474;48.824;9.384;2023-06-19T11:41:52;3.28;;;2.95;;
13785;SDS011;47474;48.824;9.384;2023-06-19T11:44:20;3.05;;;2.78;;
13785;SDS011;47474;48.824;9.384;2023-06-19T11:46:46;3.30;;;3.03;;
13785;SDS011;47474;48.824;9.384;2023-06-19T11:49:14;3.05;;;2.85;;
13785;SDS011;47474;48.824;9.384;2023-06-19T11:51:42;3.08;;;2.88;;
13785;SDS011;47474;48.824;9.384;2023-06-19T11:54:09;3.10;;;2.90;;
13785;SDS011;47474;48.824;9.384;2023-06-19T11:56:36;3.40;;;2.95;;
13785;SDS011;47474;48.824;9.384;2023-06-19T11:59:03;3.13;;;2.80;;
13785;SDS011;47474;48.824;9.384;2023-06-19T12:01:32;2.90;;;2.70;;
13785;SDS011;47474;48.824;9.384;2023-06-19T12:03:59;2.72;;;2.53;;
13785;SDS011;47474;48.824;9.384;2023-06-19T12:06:26;3.60;;;3.30;;
13785;SDS011;47474;48.824;9.384;2023-06-19T12:08:52;4.05;;;3.25;;
13785;SDS011;47474;48.824;9.384;2023-06-19T12:11:19;3.33;;;3.03;;
13785;SDS011;47474;48.824;9.384;2023-06-19T12:13:46;3.42;;;3.22;;
13785;SDS011;47474;48.824;9.384;2023-06-19T12:16:12;3.10;;;2.88;;
13785;SDS011;47474;48.824;9.384;2023-06-19T12:18:41;5.40;;;3.00;;
13785;SDS011;47474;48.824;9.384;2023-06-19T12:21:07;2.80;;;2.60;;
13785;SDS011;47474;48.824;9.384;2023-06-19T12:23:34;3.83;;;3.25;;
13785;SDS011;47474;48.824;9.384;2023-06-19T12:26:01;7.88;;;3.42;;
13785;SDS011;47474;48.824;9.384;2023-06-19T12:28:27;3.22;;;2.92;;
13785;SDS011;47474;48.824;9.384;2023-06-19T12:30:55;3.50;;;3.20;;
13785;SDS011;47474;48.824;9.384;2023-06-19T12:33:21;3.25;;;2.95;;
13785;SDS011;47474;48.824;9.384;2023-06-19T12:35:49;2.92;;;2.72;;
13785;SDS011;47474;48.824;9.384;2023-06-19T12:38:16;3.40;;;3.10;;
13785;SDS011;47474;48.824;9.384;2023-06-19T12:40:44;4.65;;;2.97;;
13785;SDS011;47474;48.824;9.384;2023-06-19T12:43:10;3.05;;;2.78;;
13785;SDS011;47474;48.824;9.384;2023-06-19T12:45:37;3.08;;;2.88;;
13785;SDS011;47474;48.824;9.384;2023-06-19T12:48:04;3.13;;;2.92;;
13785;SDS011;47474;48.824;9.384;2023-06-19T12:50:31;3.72;;;3.03;;
13785;SDS011;47474;48.824;9.384;2023-06-19T12:52:59;3.22;;;2.80;;
13785;SDS011;47474;48.824;9.384;2023-06-19T12:55:31;3.60;;;2.80;;
13785;SDS011;47474;48.824;9.384;2023-06-19T12:58:01;3.25;;;3.03;;
13785;SDS011;47474;48.824;9.384;2023-06-19T13:00:28;2.97;;;2.78;;
13785;SDS011;47474;48.824;9.384;2023-06-19T13:02:54;3.65;;;3.35;;
13785;SDS011;47474;48.824;9.384;2023-06-19T13:05:21;3.65;;;3.33;;
13785;SDS011;47474;48.824;9.384;2023-06-19T13:07:48;3.67;;;2.83;;
13785;SDS011;47474;48.824;9.384;2023-06-19T13:10:16;3.55;;;3.28;;
13785;SDS011;47474;48.824;9.384;2023-06-19T13:12:42;3.45;;;3.10;;
13785;SDS011;47474;48.824;9.384;2023-06-19T13:15:09;4.10;;;3.80;;
13785;SDS011;47474;48.824;9.384;2023-06-19T13:17:36;2.97;;;2.78;;
13785;SDS011;47474;48.824;9.384;2023-06-19T13:20:03;3.13;;;2.92;;
13785;SDS011;47474;48.824;9.384;2023-06-19T13:22:31;3.70;;;2.70;;
13785;SDS011;47474;48.824;9.384;2023-06-19T13:24:57;3.00;;;2.80;;
13785;SDS011;47474;48.824;9.384;2023-06-19T13:27:26;2.97;;;2.78;;
13785;SDS011;47474;48.824;9.384;2023-06-19T13:29:53;3.67;;;3.38;;
13785;SDS011;47474;48.824;9.384;2023-06-19T13:32:20;2.88;;;2.67;;
13785;SDS011;47474;48.824;9.384;2023-06-19T13:34:47;3.42;;;3.22;;
13785;SDS011;47474;48.824;9.384;2023-06-19T13:37:14;3.67;;;3.38;;
13785;SDS011;47474;48.824;9.384;2023-06-19T13:39:40;3.28;;;2.97;;
13785;SDS011;47474;48.824;9.384;2023-06-19T13:42:07;3.00;;;2.80;;
13785;SDS011;47474;48.824;9.384;2023-06-19T13:44:35;2.88;;;2.67;;
13785;SDS011;47474;48.824;9.384;2023-06-19T13:47:02;3.15;;;2.95;;
13785;SDS011;47474;48.824;9.384;2023-06-19T13:49:29;3.05;;;2.85;;
13785;SDS011;47474;48.824;9.384;2023-06-19T13:51:56;4.32;;;2.60;;
13785;SDS011;47474;48.824;9.384;2023-06-19T13:54:22;2.80;;;2.60;;
13785;SDS011;47474;48.824;9.384;2023-06-19T13:56:49;2.85;;;2.65;;
13785;SDS011;47474;48.824;9.384;2023-06-19T13:59:16;2.88;;;2.67;;
13785;SDS011;47474;48.824;9.384;2023-06-19T14:01:44;2.78;;;2.58;;
13785;SDS011;47474;48.824;9.384;2023-06-19T14:04:11;3.45;;;3.15;;
13785;SDS011;47474;48.824;9.384;2023-06-19T14:06:37;2.88;;;2.67;;
13785;SDS011;47474;48.824;9.384;2023-06-19T14:09:07;4.28;;;3.58;;
13785;SDS011;47474;48.824;9.384;2023-06-19T14:11:33;3.33;;;3.10;;
13785;SDS011;47474;48.824;9.384;2023-06-19T14:14:00;2.72;;;2.53;;
13785;SDS011;47474;48.824;9.384;2023-06-19T14:16:26;3.33;;;2.88;;
13785;SDS011;47474;48.824;9.384;2023-06-19T14:18:54;3.15;;;2.88;;
13785;SDS011;47474;48.824;9.384;2023-06-19T14:21:21;2.70;;;2.50;;
13785;SDS011;47474;48.824;9.384;2023-06-19T14:23:48;2.90;;;2.70;;
13785;SDS011;47474;48.824;9.384;2023-06-19T14:26:15;3.30;;;3.00;;
13785;SDS011;47474;48.824;9.384;2023-06-19T14:28:41;3.10;;;2.90;;
13785;SDS011;47474;48.824;9.384;2023-06-19T14:31:08;2.83;;;2.55;;
13785;SDS011;47474;48.824;9.384;2023-06-19T14:33:35;2.92;;;2.72;;
13785;SDS011;47474;48.824;9.384;2023-06-19T14:36:04;4.32;;;2.53;;
13785;SDS011;47474;48.824;9.384;2023-06-19T14:38:31;3.05;;;2.85;;
13785;SDS011;47474;48.824;9.384;2023-06-19T14:40:59;2.80;;;2.60;;
13785;SDS011;47474;48.824;9.384;2023-06-19T14:43:25;3.40;;;3.10;;
13785;SDS011;47474;48.824;9.384;2023-06-19T14:45:52;3.42;;;3.13;;
13785;SDS011;47474;48.824;9.384;2023-06-19T14:48:19;3.50;;;3.20;;